Time;durP1;ratioP1;P1;durP2;ratioP2;P2;SDS_P1;SDS_P2;PMS_P1;PMS_P2;Temp;Humidity;BMP_temperature;BMP_pressure;BME280_temperature;BME280_humidity;BME280_pressure;Samples;Min_cycle;Max_cycle;Signal;HPM_P1;HPM_P2
2022/01/23 00:02:27;;;;;;;14.25;7.43;;;6.00;99.90;;;;;;5003768;28;20084;-60
2022/01/23 00:04:53;;;;;;;11.27;7.25;;;6.00;99.90;;;;;;4947644;28;20049;-60
2022/01/23 00:07:20;;;;;;;15.35;7.07;;;6.00;99.90;;;;;;4940112;28;20398;-60
2022/01/23 00:09:46;;;;;;;17.65;7.28;;;6.00;99.90;;;;;;4943058;28;20055;-60
2022/01/23 00:12:18;;;;;;;10.43;6.35;;;6.00;99.90;;;;;;4934967;28;20046;-60
2022/01/23 00:17:34;;;;;;;13.15;6.82;;;6.00;99.90;;;;;;4951465;28;20055;-60
2022/01/23 00:20:13;;;;;;;13.25;6.72;;;6.00;99.90;;;;;;4974222;28;20133;-60
2022/01/23 00:22:53;;;;;;;13.10;6.78;;;6.00;99.90;;;;;;4953855;28;20494;-61
2022/01/23 00:30:52;;;;;;;13.93;6.75;;;6.00;99.90;;;;;;4940088;28;20047;-60
2022/01/23 00:33:19;;;;;;;11.50;6.22;;;6.10;99.90;;;;;;4934311;28;20090;-60
2022/01/23 00:35:47;;;;;;;12.82;6.30;;;6.00;99.90;;;;;;4940307;28;20050;-60
2022/01/23 00:38:14;;;;;;;11.77;6.65;;;6.00;99.90;;;;;;4926820;28;20043;-60
2022/01/23 00:40:42;;;;;;;12.85;6.93;;;6.00;99.90;;;;;;4930019;28;20167;-60
2022/01/23 00:43:30;;;;;;;12.15;7.05;;;6.00;99.90;;;;;;4952873;28;20059;-61
2022/01/23 00:46:10;;;;;;;14.00;7.82;;;6.00;99.90;;;;;;4952914;28;20150;-60
2022/01/23 00:48:51;;;;;;;13.07;6.82;;;6.00;99.90;;;;;;4948906;28;20054;-60
2022/01/23 00:51:17;;;;;;;11.23;6.65;;;6.00;99.90;;;;;;4951156;28;20051;-61
2022/01/23 00:53:43;;;;;;;14.75;6.90;;;6.00;99.90;;;;;;4952783;28;20052;-61
2022/01/23 00:56:09;;;;;;;13.02;7.05;;;6.00;99.90;;;;;;4971223;28;20097;-60
2022/01/23 00:58:35;;;;;;;14.50;7.07;;;5.90;99.90;;;;;;4964807;28;20053;-60
2022/01/23 01:01:01;;;;;;;13.02;6.75;;;6.00;99.90;;;;;;4915798;28;20043;-61
2022/01/23 01:03:28;;;;;;;15.05;7.93;;;5.90;99.90;;;;;;4943341;28;20104;-60
2022/01/23 01:05:55;;;;;;;15.27;7.95;;;5.90;99.90;;;;;;4944298;28;20134;-60
2022/01/23 01:08:22;;;;;;;13.73;6.97;;;5.90;99.90;;;;;;4942502;28;20058;-60
2022/01/23 01:11:07;;;;;;;12.65;6.80;;;5.90;99.90;;;;;;4954630;28;20530;-61
2022/01/23 01:30:19;;;;;;;15.95;7.13;;;5.90;99.90;;;;;;4966051;28;20051;-60
2022/01/23 01:35:38;;;;;;;13.70;7.60;;;5.90;99.90;;;;;;4929104;28;20039;-61
2022/01/23 01:38:07;;;;;;;15.15;7.65;;;5.90;99.90;;;;;;4965037;28;20106;-60
2022/01/23 01:40:33;;;;;;;14.65;7.60;;;5.90;99.90;;;;;;4956312;28;20085;-60
2022/01/23 01:43:01;;;;;;;16.13;8.18;;;5.80;99.90;;;;;;4932960;28;20522;-61
2022/01/23 01:45:30;;;;;;;13.50;7.85;;;5.90;99.90;;;;;;4929973;29;20056;-60
2022/01/23 01:48:04;;;;;;;16.70;7.80;;;5.90;99.90;;;;;;4928973;28;20045;-60
2022/01/23 01:50:33;;;;;;;20.30;8.48;;;5.80;99.90;;;;;;4929852;28;20083;-60
2022/01/23 01:53:04;;;;;;;13.02;7.15;;;5.80;99.90;;;;;;4913613;29;20062;-60
2022/01/23 01:55:39;;;;;;;18.15;8.63;;;5.80;99.90;;;;;;4920116;28;20086;-60
2022/01/23 01:58:12;;;;;;;20.83;8.60;;;5.80;99.90;;;;;;4919727;28;20051;-61
2022/01/23 02:01:04;;;;;;;16.52;9.38;;;5.80;99.90;;;;;;5049620;28;20085;-60
2022/01/23 02:08:51;;;;;;;18.20;8.68;;;5.90;99.90;;;;;;4949404;28;19919;-61
2022/01/23 02:11:35;;;;;;;15.02;8.75;;;5.90;99.90;;;;;;4954397;28;20529;-61
2022/01/23 02:14:25;;;;;;;16.42;8.63;;;5.90;99.90;;;;;;4944135;28;20104;-61
2022/01/23 02:17:15;;;;;;;16.92;8.10;;;5.90;99.90;;;;;;4967044;28;20047;-61
2022/01/23 02:22:56;;;;;;;16.48;8.43;;;5.90;99.90;;;;;;4949422;28;20055;-60
2022/01/23 02:51:01;;;;;;;;;;;5.90;99.90;;;;;;4979909;28;20152;-60
2022/01/23 02:55:59;;;;;;;16.17;8.88;;;5.80;99.90;;;;;;4947090;28;20058;-61
2022/01/23 02:58:33;;;;;;;18.48;9.65;;;5.90;99.90;;;;;;4964614;28;20086;-52
2022/01/23 03:01:15;;;;;;;11.55;7.97;;;5.80;99.90;;;;;;4983234;28;20413;-53
2022/01/23 03:04:21;;;;;;;19.05;9.45;;;5.80;99.90;;;;;;4927180;28;20049;-60
2022/01/23 03:10:19;;;;;;;18.90;9.35;;;5.80;99.90;;;;;;4949585;28;20047;-51
2022/01/23 03:26:30;;;;;;;16.13;10.70;;;5.90;99.90;;;;;;4919488;28;20050;-52
2022/01/23 03:31:33;;;;;;;16.30;11.23;;;5.90;99.90;;;;;;5017635;28;20636;-53
2022/01/23 03:34:00;;;;;;;19.73;10.70;;;5.90;99.90;;;;;;4943998;28;20047;-60
2022/01/23 03:36:26;;;;;;;18.20;10.95;;;5.90;99.90;;;;;;4940013;28;20051;-61
2022/01/23 03:38:52;;;;;;;19.80;11.35;;;5.90;99.90;;;;;;4951834;28;20046;-60
2022/01/23 03:41:19;;;;;;;23.55;11.07;;;5.80;99.90;;;;;;4952523;28;20073;-50
2022/01/23 03:43:45;;;;;;;17.45;10.45;;;5.80;99.90;;;;;;4968484;28;20054;-52
2022/01/23 03:46:36;;;;;;;22.77;12.55;;;5.80;99.90;;;;;;4917215;28;20788;-53
2022/01/23 03:51:53;;;;;;;22.17;12.30;;;5.80;99.90;;;;;;4946493;28;20051;-54
2022/01/23 03:54:20;;;;;;;27.23;11.80;;;5.80;99.90;;;;;;4934189;28;20047;-53
2022/01/23 03:56:46;;;;;;;24.85;12.48;;;5.80;99.90;;;;;;4958215;28;20047;-54
2022/01/23 03:59:12;;;;;;;23.63;12.15;;;5.80;99.90;;;;;;4975889;28;20073;-60
2022/01/23 04:01:38;;;;;;;25.58;12.63;;;5.80;99.90;;;;;;4960256;28;20112;-60
2022/01/23 04:04:14;;;;;;;21.10;11.80;;;5.80;99.90;;;;;;4928028;28;20044;-53
2022/01/23 04:06:40;;;;;;;21.90;11.90;;;5.80;99.90;;;;;;4930992;28;20078;-52
2022/01/23 04:09:06;;;;;;;24.83;12.15;;;5.80;99.90;;;;;;4974502;28;20061;-53
2022/01/23 04:11:32;;;;;;;20.60;11.85;;;5.80;99.90;;;;;;4977552;28;20076;-54
2022/01/23 04:14:05;;;;;;;23.35;12.40;;;5.80;99.90;;;;;;5018748;28;20097;-52
2022/01/23 04:17:06;;;;;;;20.58;12.55;;;5.80;99.90;;;;;;4966493;28;20561;-52
2022/01/23 05:00:21;;;;;;;23.52;11.95;;;5.70;99.90;;;;;;4936900;28;20051;-53
2022/01/23 05:05:37;;;;;;;24.63;13.05;;;5.70;99.90;;;;;;4962896;28;20054;-52
2022/01/23 05:08:33;;;;;;;23.13;12.02;;;5.70;99.90;;;;;;4951240;28;20047;-51
2022/01/23 05:11:20;;;;;;;26.20;13.15;;;5.70;99.90;;;;;;4958702;28;20461;-54
2022/01/23 05:14:02;;;;;;;21.63;11.68;;;5.70;99.90;;;;;;4961071;28;20058;-53
2022/01/23 05:16:31;;;;;;;21.55;11.48;;;5.70;99.90;;;;;;5000730;28;20105;-54
2022/01/23 05:18:59;;;;;;;22.83;12.00;;;5.70;99.90;;;;;;4921637;29;20097;-52
2022/01/23 05:24:01;;;;;;;22.65;11.63;;;5.70;99.90;;;;;;4929277;28;20632;-51
2022/01/23 05:26:28;;;;;;;25.00;13.05;;;5.70;99.90;;;;;;4933665;28;20054;-61
2022/01/23 05:28:54;;;;;;;17.52;11.00;;;5.70;99.90;;;;;;4931127;28;20121;-61
2022/01/23 05:31:20;;;;;;;19.67;11.75;;;5.70;99.90;;;;;;4961759;28;20083;-61
2022/01/23 05:33:46;;;;;;;18.67;11.00;;;5.70;99.90;;;;;;4936310;29;20043;-61
2022/01/23 05:36:13;;;;;;;20.90;11.20;;;5.70;99.90;;;;;;4955643;28;20491;-61
2022/01/23 05:38:39;;;;;;;22.70;12.50;;;5.70;99.90;;;;;;4945965;29;20181;-61
2022/01/23 05:41:05;;;;;;;17.17;10.73;;;5.70;99.90;;;;;;4961906;28;20240;-60
2022/01/23 05:43:31;;;;;;;17.23;10.88;;;5.70;99.90;;;;;;4945890;28;20145;-60
2022/01/23 05:45:58;;;;;;;22.27;11.57;;;5.70;99.90;;;;;;4949367;28;20048;-61
2022/01/23 05:48:47;;;;;;;21.33;11.45;;;5.70;99.90;;;;;;4965534;28;20052;-61
2022/01/23 05:51:39;;;;;;;;;;;5.80;99.90;;;;;;4961315;28;20092;-61
2022/01/23 05:54:23;;;;;;;20.38;10.93;;;5.70;99.90;;;;;;4947474;29;19919;-61
2022/01/23 05:57:09;;;;;;;19.75;11.18;;;5.60;99.90;;;;;;4937722;28;20087;-50
2022/01/23 05:59:53;;;;;;;20.88;11.52;;;5.70;99.90;;;;;;5038248;28;20085;-61
2022/01/23 06:02:20;;;;;;;17.65;11.00;;;5.70;99.90;;;;;;4982104;28;20082;-61
2022/01/23 06:04:46;;;;;;;20.80;11.63;;;5.70;99.90;;;;;;4941042;29;20043;-61
2022/01/23 06:07:34;;;;;;;19.83;11.38;;;5.70;99.90;;;;;;4934160;28;20043;-61
2022/01/23 06:10:05;;;;;;;21.30;12.02;;;5.70;99.90;;;;;;4933635;29;20054;-61
2022/01/23 06:12:31;;;;;;;18.83;9.65;;;5.70;99.90;;;;;;4954228;28;20075;-60
2022/01/23 06:14:57;;;;;;;18.25;10.57;;;5.70;99.90;;;;;;4948279;28;20470;-61
2022/01/23 06:17:24;;;;;;;18.08;10.40;;;5.70;99.90;;;;;;4948925;28;20078;-61
2022/01/23 06:20:11;;;;;;;19.80;10.55;;;5.70;99.90;;;;;;4942625;28;20054;-61
2022/01/23 06:22:57;;;;;;;18.55;11.23;;;5.70;99.90;;;;;;4946200;28;20378;-61
2022/01/23 06:25:48;;;;;;;21.48;11.13;;;5.70;99.90;;;;;;4957353;28;20149;-53
2022/01/23 06:28:59;;;;;;;18.83;10.88;;;5.70;99.90;;;;;;4945493;28;20069;-60
2022/01/23 06:31:25;;;;;;;17.65;10.80;;;5.70;99.90;;;;;;4961589;28;20526;-61
2022/01/23 06:33:51;;;;;;;21.40;10.40;;;5.80;99.90;;;;;;4946968;28;20093;-54
2022/01/23 06:36:18;;;;;;;19.92;10.77;;;5.80;99.90;;;;;;4937864;28;20048;-54
2022/01/23 06:38:45;;;;;;;17.73;10.63;;;5.80;99.90;;;;;;4940613;28;20484;-52
2022/01/23 06:41:11;;;;;;;17.88;9.85;;;5.80;99.90;;;;;;4989089;28;20142;-53
2022/01/23 06:44:00;;;;;;;15.43;10.18;;;5.80;99.90;;;;;;4939398;28;20058;-53
2022/01/23 06:46:35;;;;;;;17.67;9.95;;;5.80;99.90;;;;;;4970690;28;20044;-50
2022/01/23 06:49:04;;;;;;;16.17;9.65;;;5.70;99.90;;;;;;4909808;28;20045;-54
2022/01/23 06:51:31;;;;;;;14.95;9.07;;;5.70;99.90;;;;;;4943782;28;20330;-53
2022/01/23 06:53:57;;;;;;;16.13;9.00;;;5.70;99.90;;;;;;4941735;28;20494;-53
2022/01/23 06:56:24;;;;;;;14.63;8.88;;;5.70;99.90;;;;;;4958991;28;20462;-54
2022/01/23 06:58:50;;;;;;;12.57;8.45;;;5.70;99.90;;;;;;4953617;28;20123;-54
2022/01/23 07:01:17;;;;;;;17.45;9.05;;;5.70;99.90;;;;;;4921491;28;20043;-55
2022/01/23 07:04:18;;;;;;;16.55;9.15;;;5.70;99.90;;;;;;4938790;28;20043;-51
2022/01/23 07:06:53;;;;;;;13.80;8.45;;;5.70;99.90;;;;;;4928697;28;20058;-61
2022/01/23 07:09:38;;;;;;;14.52;9.25;;;5.70;99.90;;;;;;4934940;28;20511;-61
2022/01/23 07:12:23;;;;;;;16.58;8.60;;;5.70;99.90;;;;;;4945961;28;20051;-61
2022/01/23 07:15:07;;;;;;;16.92;9.60;;;5.70;99.90;;;;;;4964958;28;20052;-62
2022/01/23 07:17:44;;;;;;;14.05;8.52;;;5.70;99.90;;;;;;4941985;29;20047;-52
2022/01/23 07:20:44;;;;;;;14.63;8.90;;;5.70;99.90;;;;;;5003681;28;20043;-61
2022/01/23 07:23:21;;;;;;;16.27;9.23;;;5.70;99.90;;;;;;4961455;28;20055;-62
2022/01/23 07:25:49;;;;;;;16.00;8.68;;;5.60;99.90;;;;;;4927300;29;20039;-61
2022/01/23 07:28:17;;;;;;;16.10;8.85;;;5.70;99.90;;;;;;4975252;28;20497;-62
2022/01/23 07:33:10;;;;;;;15.90;8.88;;;5.60;99.90;;;;;;4912653;29;20055;-53
2022/01/23 07:35:36;;;;;;;14.43;8.40;;;5.60;99.90;;;;;;4946226;29;20073;-53
2022/01/23 07:38:04;;;;;;;15.07;8.80;;;5.60;99.90;;;;;;4929743;28;20050;-55
2022/01/23 07:40:57;;;;;;;16.20;8.30;;;5.60;99.90;;;;;;4967695;28;20050;-62
2022/01/23 07:43:47;;;;;;;19.98;9.38;;;5.60;99.90;;;;;;4952828;28;20066;-61
2022/01/23 07:46:43;;;;;;;18.80;9.15;;;5.60;99.90;;;;;;4947621;28;20061;-54
2022/01/23 07:49:24;;;;;;;15.82;8.65;;;5.60;99.90;;;;;;4923644;28;20105;-61
2022/01/23 07:52:02;;;;;;;12.90;9.07;;;5.60;99.90;;;;;;4934820;28;20063;-49
2022/01/23 07:54:48;;;;;;;14.60;8.80;;;5.60;99.90;;;;;;4940675;29;20123;-61
2022/01/23 07:57:46;;;;;;;12.60;8.30;;;5.60;99.90;;;;;;4961395;28;20466;-61
2022/01/23 08:00:39;;;;;;;;;;;5.60;99.90;;;;;;4980649;28;20559;-50
2022/01/23 08:03:06;;;;;;;16.67;9.02;;;5.60;99.90;;;;;;4924959;28;20046;-53
2022/01/23 08:06:01;;;;;;;15.20;8.75;;;5.60;99.90;;;;;;4983266;28;20814;-61
2022/01/23 08:08:51;;;;;;;12.32;8.60;;;5.60;99.90;;;;;;4961416;28;20105;-59
2022/01/23 08:11:23;;;;;;;15.63;9.10;;;5.60;99.90;;;;;;4929918;28;20063;-61
2022/01/23 08:13:49;;;;;;;14.93;8.75;;;5.70;99.90;;;;;;4935559;28;20061;-50
2022/01/23 08:16:15;;;;;;;16.23;8.80;;;5.70;99.90;;;;;;4941770;28;20123;-49
2022/01/23 08:18:41;;;;;;;18.25;9.90;;;5.70;99.90;;;;;;4953475;28;20047;-50
2022/01/23 08:21:08;;;;;;;16.55;9.55;;;5.70;99.90;;;;;;4935817;28;20036;-60
2022/01/23 08:23:38;;;;;;;15.00;9.10;;;5.70;99.90;;;;;;4943620;28;20043;-60
2022/01/23 08:26:05;;;;;;;15.15;8.98;;;5.70;99.90;;;;;;4919539;29;20048;-52
2022/01/23 08:28:32;;;;;;;14.55;9.23;;;5.70;99.90;;;;;;4930629;28;20058;-51
2022/01/23 08:30:58;;;;;;;12.55;8.70;;;5.80;99.90;;;;;;4922434;28;20077;-49
2022/01/23 08:33:24;;;;;;;17.02;9.23;;;5.80;99.90;;;;;;4941186;28;20055;-51
2022/01/23 08:35:56;;;;;;;17.83;9.75;;;5.80;99.90;;;;;;4940355;29;20513;-60
2022/01/23 08:38:25;;;;;;;17.42;10.32;;;5.80;99.90;;;;;;4927469;28;20047;-48
2022/01/23 08:43:37;;;;;;;14.52;9.85;;;5.90;99.90;;;;;;4958707;28;20414;-50
2022/01/23 08:46:04;;;;;;;18.40;10.20;;;5.90;99.90;;;;;;4959526;28;20051;-49
2022/01/23 08:48:30;;;;;;;15.95;9.73;;;5.90;99.90;;;;;;4951974;28;20122;-52
2022/01/23 08:50:56;;;;;;;15.95;9.82;;;5.90;99.90;;;;;;4964970;28;20100;-48
2022/01/23 08:53:23;;;;;;;12.93;9.07;;;6.00;99.90;;;;;;4963943;28;20526;-50
2022/01/23 08:55:49;;;;;;;15.68;10.50;;;6.00;99.90;;;;;;4962896;28;20145;-49
2022/01/23 08:58:16;;;;;;;15.77;9.27;;;6.00;99.90;;;;;;4947412;28;20058;-60
2022/01/23 09:00:43;;;;;;;14.93;10.15;;;6.10;99.90;;;;;;4966010;28;20449;-60
2022/01/23 09:03:09;;;;;;;16.27;10.68;;;6.10;99.90;;;;;;4967327;28;20050;-61
2022/01/23 09:05:36;;;;;;;15.63;10.52;;;6.10;99.90;;;;;;4988299;28;20119;-60
2022/01/23 09:08:03;;;;;;;17.48;11.15;;;6.20;99.90;;;;;;4972472;28;20043;-60
2022/01/23 09:10:39;;;;;;;16.38;10.15;;;6.20;99.90;;;;;;4948670;28;20051;-63
2022/01/23 09:13:15;;;;;;;17.42;10.45;;;6.20;99.90;;;;;;4933193;28;20047;-60
2022/01/23 09:15:41;;;;;;;18.85;10.80;;;6.20;99.90;;;;;;4986333;28;20410;-60
2022/01/23 09:18:07;;;;;;;19.98;11.32;;;6.30;99.90;;;;;;4972870;28;20039;-60
2022/01/23 09:20:34;;;;;;;20.20;10.77;;;6.20;99.90;;;;;;4967402;28;20043;-60
2022/01/23 09:23:00;;;;;;;22.95;11.52;;;6.30;99.90;;;;;;4967137;28;20136;-60
2022/01/23 09:25:26;;;;;;;23.50;11.95;;;6.30;99.90;;;;;;4968981;28;20624;-60
2022/01/23 09:27:54;;;;;;;19.05;10.32;;;6.30;99.90;;;;;;4948792;28;20046;-60
2022/01/23 09:30:22;;;;;;;22.92;11.15;;;6.30;99.90;;;;;;4977208;28;20440;-49
2022/01/23 09:32:49;;;;;;;16.98;9.85;;;6.40;99.90;;;;;;4998200;28;20168;-49
2022/01/23 09:35:16;;;;;;;17.58;9.65;;;6.40;99.90;;;;;;4981668;28;20505;-49
2022/01/23 09:37:43;;;;;;;15.80;9.52;;;6.40;99.90;;;;;;4981612;28;20046;-50
2022/01/23 09:40:10;;;;;;;17.83;10.25;;;6.50;99.90;;;;;;4953004;28;20414;-51
2022/01/23 09:42:54;;;;;;;15.77;10.15;;;6.50;99.90;;;;;;4927232;28;20062;-51
2022/01/23 09:45:21;;;;;;;16.48;9.77;;;6.60;99.90;;;;;;4945055;28;20039;-48
2022/01/23 09:47:47;;;;;;;13.95;9.02;;;6.60;99.90;;;;;;4958428;28;20056;-49
2022/01/23 09:50:15;;;;;;;16.02;9.48;;;6.70;99.90;;;;;;4952330;28;20051;-48
2022/01/23 09:52:41;;;;;;;14.25;8.85;;;6.70;99.90;;;;;;5021075;28;20052;-51
2022/01/23 09:55:11;;;;;;;13.85;7.97;;;6.70;99.90;;;;;;4942395;28;20054;-53
2022/01/23 09:57:43;;;;;;;13.90;7.93;;;6.80;99.90;;;;;;4932729;28;20070;-61
2022/01/23 10:00:19;;;;;;;10.68;7.60;;;6.80;99.90;;;;;;4958020;28;20489;-61
2022/01/23 10:02:50;;;;;;;13.73;8.52;;;6.80;99.90;;;;;;4959381;28;20483;-61
2022/01/23 10:05:17;;;;;;;12.13;8.25;;;6.90;99.90;;;;;;4952280;28;20113;-61
2022/01/23 10:07:44;;;;;;;14.15;9.65;;;6.90;99.90;;;;;;5035692;28;20133;-61
2022/01/23 10:10:17;;;;;;;14.57;9.60;;;6.90;99.90;;;;;;5071810;28;20044;-61
2022/01/23 10:12:48;;;;;;;13.85;9.57;;;6.90;99.90;;;;;;5071647;28;20053;-61
2022/01/23 10:15:14;;;;;;;13.55;8.63;;;6.90;99.90;;;;;;5009790;28;20498;-54
2022/01/23 10:17:40;;;;;;;12.48;9.07;;;6.90;99.90;;;;;;4969726;28;20058;-54
2022/01/23 10:20:08;;;;;;;13.27;9.45;;;6.90;99.90;;;;;;4966519;28;20057;-52
2022/01/23 10:22:36;;;;;;;16.65;9.65;;;6.90;99.90;;;;;;4981815;28;20054;-52
2022/01/23 10:25:14;;;;;;;13.30;9.20;;;7.00;99.90;;;;;;4966983;28;20524;-55
2022/01/23 10:28:16;;;;;;;14.38;9.65;;;7.00;99.90;;;;;;4923950;28;20050;-55
2022/01/23 10:30:47;;;;;;;15.07;10.15;;;7.00;99.90;;;;;;4947246;28;20051;-55
2022/01/23 10:33:21;;;;;;;14.50;9.23;;;7.00;99.90;;;;;;4947625;28;20043;-54
2022/01/23 10:36:03;;;;;;;18.30;9.90;;;7.10;99.90;;;;;;4964079;28;20457;-61
2022/01/23 10:38:37;;;;;;;13.95;9.48;;;7.10;99.90;;;;;;4956100;28;20055;-61
2022/01/23 10:50:07;;;;;;;16.80;9.05;;;7.20;99.90;;;;;;4974340;28;20096;-54
2022/01/23 10:52:38;;;;;;;15.23;9.63;;;7.20;99.90;;;;;;4948362;28;20367;-63
2022/01/23 10:55:24;;;;;;;11.65;7.93;;;7.30;99.90;;;;;;4943177;28;20047;-57
2022/01/23 10:57:54;;;;;;;10.88;7.22;;;7.30;99.90;;;;;;4948535;28;20409;-53
2022/01/23 11:00:37;;;;;;;14.23;8.07;;;7.30;99.90;;;;;;4951272;28;20055;-54
2022/01/23 11:03:23;;;;;;;5.18;2.92;;;7.40;99.90;;;;;;4972316;28;20042;-52
2022/01/23 11:05:51;;;;;;;6.53;4.72;;;7.40;99.90;;;;;;4967095;28;20454;-54
2022/01/23 11:08:28;;;;;;;8.35;5.55;;;7.40;99.90;;;;;;4942705;28;20046;-53
2022/01/23 11:11:02;;;;;;;7.60;5.70;;;7.50;99.90;;;;;;4948803;28;20137;-62
2022/01/23 11:19:20;;;;;;;4.07;2.30;;;7.50;99.90;;;;;;4954542;28;20085;-53
2022/01/23 11:21:47;;;;;;;3.80;2.70;;;7.60;99.90;;;;;;4946684;28;20053;-55
2022/01/23 11:24:14;;;;;;;6.07;2.83;;;7.60;99.90;;;;;;4935341;28;20362;-51
2022/01/23 11:26:41;;;;;;;3.78;2.10;;;7.60;99.90;;;;;;4942982;28;20054;-54
2022/01/23 11:29:15;;;;;;;3.45;1.83;;;7.60;99.90;;;;;;4958562;28;20047;-52
2022/01/23 11:31:43;;;;;;;1.52;1.08;;;7.60;99.90;;;;;;4972913;28;20398;-54
2022/01/23 11:34:13;;;;;;;2.10;0.65;;;7.60;99.90;;;;;;4954614;28;20058;-53
2022/01/23 11:36:41;;;;;;;3.25;1.73;;;7.50;99.90;;;;;;4934350;28;20055;-51
2022/01/23 11:39:16;;;;;;;3.92;2.17;;;7.50;99.90;;;;;;4958478;28;20070;-52
2022/01/23 11:50:44;;;;;;;5.28;2.75;;;7.30;99.90;;;;;;4914588;28;20063;-53
2022/01/23 11:56:25;;;;;;;3.28;2.10;;;7.30;99.90;;;;;;4950143;28;20044;-53
2022/01/23 11:59:17;;;;;;;4.95;2.30;;;7.30;99.90;;;;;;4915118;29;20072;-52
2022/01/23 12:01:45;;;;;;;5.15;2.95;;;7.30;99.90;;;;;;4905523;28;20499;-54
2022/01/23 12:04:22;;;;;;;5.30;2.92;;;7.30;99.90;;;;;;4922282;29;20851;-53
2022/01/23 12:07:15;;;;;;;4.57;2.53;;;7.40;99.90;;;;;;4921105;29;20064;-53
2022/01/23 12:10:23;;;;;;;5.05;3.05;;;7.40;99.90;;;;;;4899680;28;20052;-52
2022/01/23 12:12:52;;;;;;;3.55;2.35;;;7.40;99.90;;;;;;4916411;29;20196;-54
2022/01/23 12:18:18;;;;;;;5.55;3.60;;;7.40;99.90;;;;;;4915043;29;20048;-54
2022/01/23 12:20:47;;;;;;;3.85;1.77;;;7.40;99.90;;;;;;4908010;28;20059;-53
2022/01/23 12:23:17;;;;;;;2.92;1.52;;;7.30;99.90;;;;;;4921113;29;20098;-49
2022/01/23 12:25:51;;;;;;;2.45;1.55;;;7.30;99.90;;;;;;4915165;29;20070;-53
2022/01/23 12:28:28;;;;;;;1.80;1.25;;;7.30;99.90;;;;;;4915309;28;20079;-51
2022/01/23 12:30:59;;;;;;;1.83;1.20;;;7.20;99.90;;;;;;4971286;28;20141;-52
2022/01/23 12:33:31;;;;;;;2.35;1.40;;;7.20;99.90;;;;;;4947583;28;20519;-54
2022/01/23 12:36:15;;;;;;;2.20;1.20;;;7.20;99.90;;;;;;4943518;28;20048;-53
2022/01/23 12:38:47;;;;;;;2.33;1.10;;;7.20;99.90;;;;;;4952694;28;20048;-52
2022/01/23 12:41:17;;;;;;;1.88;0.90;;;7.20;99.90;;;;;;4984749;28;20041;-52
2022/01/23 12:43:43;;;;;;;3.55;1.17;;;7.30;99.90;;;;;;4990069;28;20058;-54
2022/01/23 12:46:11;;;;;;;3.10;1.45;;;7.20;99.90;;;;;;4991009;28;20047;-57
2022/01/23 12:48:39;;;;;;;2.78;1.55;;;7.20;99.90;;;;;;5018023;28;20506;-54
2022/01/23 12:51:13;;;;;;;3.72;1.50;;;7.20;99.90;;;;;;4991469;28;20045;-54
2022/01/23 12:53:48;;;;;;;3.75;2.05;;;7.10;99.90;;;;;;5026846;28;20043;-50
2022/01/23 12:56:20;;;;;;;3.40;1.92;;;7.20;99.90;;;;;;4997653;28;20048;-53
2022/01/23 12:58:55;;;;;;;4.03;1.88;;;7.20;99.90;;;;;;5014245;28;20043;-53
2022/01/23 13:01:24;;;;;;;3.25;1.70;;;7.20;99.90;;;;;;5024413;28;20074;-53
2022/01/23 13:03:56;;;;;;;3.92;1.75;;;7.20;99.90;;;;;;4966391;28;20439;-53
2022/01/23 13:06:53;;;;;;;2.58;1.60;;;7.20;99.90;;;;;;4994506;28;20135;-53
2022/01/23 13:12:30;;;;;;;2.78;1.70;;;7.30;99.90;;;;;;5007882;28;20332;-55
2022/01/23 13:18:35;;;;;;;3.63;1.80;;;7.30;99.90;;;;;;4960963;28;20051;-52
2022/01/23 13:31:54;;;;;;;3.70;1.92;;;7.20;99.90;;;;;;4996836;28;20055;-61
2022/01/23 13:34:21;;;;;;;4.28;2.67;;;7.20;99.90;;;;;;4996219;28;20082;-59
2022/01/23 13:37:12;;;;;;;4.68;2.10;;;7.20;99.90;;;;;;5009320;28;20043;-61
2022/01/23 13:39:51;;;;;;;4.23;2.93;;;7.20;99.90;;;;;;4974976;28;20045;-62
2022/01/23 13:42:46;;;;;;;4.18;2.20;;;7.20;99.90;;;;;;5027917;28;20026;-60
2022/01/23 13:53:48;;;;;;;4.40;2.28;;;7.20;99.90;;;;;;5013529;28;20070;-61
2022/01/23 13:59:32;;;;;;;3.35;2.20;;;7.20;99.90;;;;;;4961856;28;20047;-61
2022/01/23 14:04:39;;;;;;;5.22;2.30;;;7.30;99.90;;;;;;4957159;28;20050;-60
2022/01/23 14:07:06;;;;;;;2.70;1.88;;;7.30;99.90;;;;;;4953268;28;20054;-61
2022/01/23 14:09:43;;;;;;;2.70;1.75;;;7.20;99.90;;;;;;4965192;28;20227;-60
2022/01/23 14:12:12;;;;;;;4.28;1.45;;;7.20;99.90;;;;;;4962554;28;20052;-61
2022/01/23 14:14:56;;;;;;;3.47;1.40;;;7.20;99.90;;;;;;4940108;28;20047;-60
2022/01/23 14:17:28;;;;;;;4.85;1.50;;;7.20;99.90;;;;;;4938026;28;20082;-60
2022/01/23 14:20:03;;;;;;;2.95;2.00;;;7.20;99.90;;;;;;4929797;28;20084;-61
2022/01/23 14:22:32;;;;;;;4.93;1.75;;;7.20;99.90;;;;;;4960474;28;20048;-50
2022/01/23 14:25:13;;;;;;;1.95;1.58;;;7.20;99.90;;;;;;4964797;28;20585;-51
2022/01/23 14:27:42;;;;;;;2.27;1.60;;;7.10;99.90;;;;;;4933118;28;20046;-54
2022/01/23 14:30:13;;;;;;;3.08;1.50;;;7.10;99.90;;;;;;4961719;28;20955;-52
2022/01/23 14:32:46;;;;;;;2.28;1.65;;;7.20;99.90;;;;;;4958156;28;20039;-61
2022/01/23 14:35:17;;;;;;;3.30;1.67;;;7.20;99.90;;;;;;4937585;28;20626;-61
2022/01/23 14:37:45;;;;;;;2.28;1.50;;;7.20;99.90;;;;;;4964637;28;20058;-61
2022/01/23 14:40:25;;;;;;;2.97;1.60;;;7.20;99.90;;;;;;4978086;28;20085;-61
2022/01/23 14:43:10;;;;;;;2.80;1.55;;;7.10;99.90;;;;;;4941031;28;20494;-61
2022/01/23 14:45:45;;;;;;;3.13;1.70;;;7.10;99.90;;;;;;4955630;28;20494;-61
2022/01/23 14:48:13;;;;;;;2.25;1.52;;;7.10;99.90;;;;;;4961764;28;20046;-61
2022/01/23 14:50:43;;;;;;;4.28;1.80;;;7.10;99.90;;;;;;4940924;28;20043;-64
2022/01/23 14:53:11;;;;;;;3.05;1.58;;;7.10;99.90;;;;;;4938440;28;20109;-60
2022/01/23 14:55:40;;;;;;;2.90;1.88;;;7.10;99.90;;;;;;4974039;28;20047;-60
2022/01/23 14:58:10;;;;;;;2.30;1.58;;;7.00;99.90;;;;;;4976043;28;20082;-61
2022/01/23 15:00:37;;;;;;;4.65;1.60;;;7.00;99.90;;;;;;4960485;28;20141;-60
2022/01/23 15:03:06;;;;;;;2.15;1.23;;;7.00;99.90;;;;;;4972265;28;20039;-61
2022/01/23 15:05:34;;;;;;;3.35;1.55;;;7.00;99.90;;;;;;4967395;28;20126;-59
2022/01/23 15:08:01;;;;;;;2.60;1.50;;;7.00;99.90;;;;;;4962056;28;20051;-61
2022/01/23 15:10:28;;;;;;;1.95;1.20;;;6.90;99.90;;;;;;4957011;28;20051;-61
2022/01/23 15:12:54;;;;;;;2.83;1.70;;;6.90;99.90;;;;;;4971081;28;20066;-61
2022/01/23 15:15:20;;;;;;;2.30;1.50;;;6.90;99.90;;;;;;4956674;28;20051;-61
2022/01/23 15:17:46;;;;;;;3.67;1.95;;;6.90;99.90;;;;;;4953494;28;20044;-60
2022/01/23 15:20:13;;;;;;;3.67;1.85;;;6.90;99.90;;;;;;4961886;28;20039;-60
2022/01/23 15:22:39;;;;;;;3.05;1.65;;;6.90;99.90;;;;;;4938526;28;20043;-60
2022/01/23 15:25:08;;;;;;;3.70;2.15;;;6.90;99.90;;;;;;4953603;28;20046;-54
2022/01/23 15:27:35;;;;;;;2.95;2.00;;;6.90;99.90;;;;;;4956862;28;20104;-59
2022/01/23 15:30:01;;;;;;;5.13;2.25;;;6.90;99.90;;;;;;4954906;28;20052;-61
2022/01/23 15:32:27;;;;;;;3.53;2.10;;;6.90;99.90;;;;;;4957972;28;20047;-61
2022/01/23 15:34:53;;;;;;;4.00;2.40;;;6.90;99.90;;;;;;4940688;28;20161;-61
2022/01/23 15:37:19;;;;;;;3.78;2.85;;;6.80;99.90;;;;;;5003774;28;20055;-61
2022/01/23 15:39:46;;;;;;;5.55;2.58;;;6.80;99.90;;;;;;5014067;28;20045;-60
2022/01/23 15:42:12;;;;;;;4.00;2.40;;;6.80;99.90;;;;;;4974793;28;20142;-61
2022/01/23 15:44:40;;;;;;;4.40;2.97;;;6.80;99.90;;;;;;4960609;28;20088;-61
2022/01/23 15:47:06;;;;;;;4.13;2.53;;;6.80;99.90;;;;;;4958620;28;20055;-62
2022/01/23 15:49:32;;;;;;;4.07;2.33;;;6.80;99.90;;;;;;4934248;28;20076;-61
2022/01/23 15:51:59;;;;;;;4.88;2.85;;;6.80;99.90;;;;;;4958961;28;20051;-60
2022/01/23 15:54:26;;;;;;;4.30;2.63;;;6.70;99.90;;;;;;4955923;28;20043;-60
2022/01/23 15:56:57;;;;;;;5.88;2.92;;;6.80;99.90;;;;;;4953654;28;20047;-61
2022/01/23 15:59:23;;;;;;;3.67;2.80;;;6.70;99.90;;;;;;4974447;28;20039;-61
2022/01/23 16:01:50;;;;;;;4.07;2.70;;;6.70;99.90;;;;;;4973570;28;20058;-61
2022/01/23 16:04:18;;;;;;;4.85;2.60;;;6.70;99.90;;;;;;4960592;28;20074;-60
2022/01/23 16:06:45;;;;;;;5.45;2.55;;;6.70;99.90;;;;;;4960531;28;20039;-61
2022/01/23 16:09:12;;;;;;;4.05;3.08;;;6.60;99.90;;;;;;4945658;28;20044;-63
2022/01/23 16:11:39;;;;;;;4.40;3.53;;;6.70;99.90;;;;;;4957039;28;20053;-61
2022/01/23 16:14:05;;;;;;;5.45;3.50;;;6.60;99.90;;;;;;4939835;28;20062;-61
2022/01/23 16:16:32;;;;;;;5.15;3.70;;;6.60;99.90;;;;;;4966183;28;20100;-60
2022/01/23 16:18:58;;;;;;;5.50;3.35;;;6.60;99.90;;;;;;4952325;28;20430;-60
2022/01/23 16:21:26;;;;;;;5.15;3.25;;;6.60;99.90;;;;;;4978445;28;20078;-60
2022/01/23 16:23:53;;;;;;;4.82;3.30;;;6.60;99.90;;;;;;4956127;28;20134;-60
2022/01/23 16:26:19;;;;;;;4.47;3.30;;;6.60;99.90;;;;;;4935530;28;20043;-59
2022/01/23 16:28:47;;;;;;;4.60;3.13;;;6.60;99.90;;;;;;4950443;28;20047;-60
2022/01/23 16:31:14;;;;;;;5.22;3.63;;;6.60;99.90;;;;;;4985789;28;20348;-60
2022/01/23 16:33:41;;;;;;;6.18;3.75;;;6.60;99.90;;;;;;4954821;28;20036;-60
2022/01/23 16:36:08;;;;;;;5.13;3.22;;;6.60;99.90;;;;;;4967164;28;20498;-60